DLH255 EGPE-BGGH
Flight info
| Callsign | DLH255 |
|---|---|
| Flight time | N/A |
| Altitude | 36000 |
| Route | DCT STN DCT ORTAV/M078F360 DCT 62N020W 64N030W DCT KAYAK DCT GH DCT |
| Aircraft | A320/M-VGDW/C |
Departure
| Time | 2026-04-29 13:57 |
|---|---|
| Airport | Inverness Airport (EGPE) |
Arrival
| Time | N/A |
|---|---|
| Airport | Nuuk International Airport (BGGH) |
| Time | Latitude | Longitude | Altitude | Speed | Heading |
|---|---|---|---|---|---|
| 2026-04-29 13:26 | 57.53931 | -4.06256 | 35 ft | 0 kts | 275° |
| 2026-04-29 13:52 | 57.53930 | -4.06214 | 32 ft | 4 kts | 263° |
| 2026-04-29 13:52 | 57.53937 | -4.06172 | 32 ft | 4 kts | 213° |
| 2026-04-29 13:52 | 57.53947 | -4.06164 | 31 ft | 0 kts | 185° |
| 2026-04-29 13:55 | 57.53904 | -4.06171 | 34 ft | 17 kts | 185° |
| 2026-04-29 13:55 | 57.53769 | -4.06134 | 32 ft | 21 kts | 130° |
| 2026-04-29 13:55 | 57.53727 | -4.05900 | 32 ft | 19 kts | 51° |
| 2026-04-29 13:56 | 57.53762 | -4.05816 | 33 ft | 0 kts | 49° |
| 2026-04-29 13:56 | 57.53824 | -4.05683 | 35 ft | 48 kts | 49° |
| 2026-04-29 13:56 | 57.53866 | -4.05594 | 35 ft | 61 kts | 49° |
| 2026-04-29 13:56 | 57.54018 | -4.05269 | 34 ft | 89 kts | 50° |
| 2026-04-29 13:57 | 57.54577 | -4.04052 | 37 ft | 155 kts | 50° |
| 2026-04-29 13:57 | 57.55322 | -4.02405 | 523 ft | 173 kts | 49° |
| 2026-04-29 13:57 | 57.56149 | -4.00598 | 983 ft | 190 kts | 49° |
| 2026-04-29 13:57 | 57.57053 | -3.98632 | 1543 ft | 212 kts | 49° |
| 2026-04-29 13:58 | 57.58263 | -3.96869 | 2219 ft | 233 kts | 18° |
| 2026-04-29 13:58 | 57.59892 | -3.96865 | 3104 ft | 242 kts | 337° |
| 2026-04-29 13:58 | 57.61196 | -3.98760 | 4061 ft | 241 kts | 300° |
| 2026-04-29 13:58 | 57.61929 | -4.01577 | 5176 ft | 243 kts | 288° |
| 2026-04-29 13:59 | 57.62491 | -4.04587 | 6237 ft | 248 kts | 286° |
| 2026-04-29 13:59 | 57.63069 | -4.07633 | 7229 ft | 256 kts | 288° |
| 2026-04-29 13:59 | 57.63737 | -4.10762 | 8246 ft | 263 kts | 291° |
| 2026-04-29 13:59 | 57.64490 | -4.13909 | 9260 ft | 269 kts | 293° |
| 2026-04-29 14:00 | 57.65320 | -4.17103 | 10241 ft | 276 kts | 294° |
| 2026-04-29 14:00 | 57.66205 | -4.20337 | 11133 ft | 283 kts | 295° |
| 2026-04-29 14:00 | 57.67129 | -4.23613 | 12060 ft | 288 kts | 295° |
| 2026-04-29 14:00 | 57.68084 | -4.26942 | 12984 ft | 293 kts | 296° |
| 2026-04-29 14:01 | 57.69053 | -4.30314 | 13895 ft | 297 kts | 296° |
| 2026-04-29 14:01 | 57.70036 | -4.33747 | 14740 ft | 302 kts | 296° |
| 2026-04-29 14:01 | 57.71032 | -4.37227 | 15510 ft | 305 kts | 296° |
| 2026-04-29 14:01 | 57.72039 | -4.40748 | 16297 ft | 309 kts | 296° |
| 2026-04-29 14:02 | 57.73057 | -4.44316 | 17079 ft | 312 kts | 296° |
| 2026-04-29 14:02 | 57.74083 | -4.47913 | 17884 ft | 315 kts | 296° |
| 2026-04-29 14:02 | 57.75119 | -4.51549 | 18637 ft | 318 kts | 296° |
| 2026-04-29 14:02 | 57.76165 | -4.55234 | 19301 ft | 322 kts | 296° |
| 2026-04-29 14:03 | 57.77218 | -4.58962 | 19986 ft | 324 kts | 296° |
| 2026-04-29 14:03 | 57.78278 | -4.62719 | 20647 ft | 328 kts | 296° |
| 2026-04-29 14:03 | 57.79345 | -4.66514 | 21312 ft | 330 kts | 296° |
| 2026-04-29 14:03 | 57.80423 | -4.70347 | 21951 ft | 334 kts | 296° |
| 2026-04-29 14:04 | 57.81511 | -4.74218 | 22591 ft | 337 kts | 296° |
| 2026-04-29 14:04 | 57.82607 | -4.78124 | 23203 ft | 340 kts | 296° |
| 2026-04-29 14:04 | 57.83712 | -4.82068 | 23809 ft | 343 kts | 296° |
| 2026-04-29 14:04 | 57.84826 | -4.86049 | 24330 ft | 345 kts | 296° |
| 2026-04-29 14:05 | 57.85943 | -4.90049 | 24838 ft | 347 kts | 296° |
| 2026-04-29 14:05 | 57.87064 | -4.94074 | 25299 ft | 349 kts | 296° |
| 2026-04-29 14:05 | 57.88190 | -4.98128 | 25724 ft | 351 kts | 296° |
| 2026-04-29 14:05 | 57.89320 | -5.02213 | 26112 ft | 353 kts | 296° |
| 2026-04-29 14:06 | 57.90457 | -5.06321 | 26491 ft | 356 kts | 296° |
| 2026-04-29 14:06 | 57.91637 | -5.10572 | 26229 ft | 376 kts | 297° |
| 2026-04-29 14:06 | 57.92442 | -5.14891 | 23677 ft | 359 kts | 284° |
| 2026-04-29 14:06 | 57.92675 | -5.20377 | 19800 ft | 455 kts | 278° |
| 2026-04-29 14:07 | 57.94302 | -5.25488 | 17727 ft | 467 kts | 321° |
| 2026-04-29 14:07 | 57.97133 | -5.28144 | 15588 ft | 464 kts | 347° |
| 2026-04-29 14:07 | 58.00336 | -5.28626 | 13575 ft | 462 kts | 2° |
| 2026-04-29 14:07 | 58.03434 | -5.28410 | 12730 ft | 429 kts | 5° |
| 2026-04-29 14:08 | 58.06320 | -5.27840 | 11804 ft | 406 kts | 10° |
| 2026-04-29 14:08 | 58.09022 | -5.26928 | 11066 ft | 381 kts | 15° |
| 2026-04-29 14:08 | 58.11462 | -5.25592 | 10357 ft | 349 kts | 42° |
| 2026-04-29 14:08 | 58.12393 | -5.21893 | 7398 ft | 326 kts | 77° |
| 2026-04-29 14:09 | 58.12283 | -5.17230 | 4359 ft | 375 kts | 110° |
| 2026-04-29 14:09 | 58.10935 | -5.13770 | 4923 ft | 300 kts | 138° |
| 2026-04-29 14:09 | 58.09565 | -5.11180 | 5015 ft | 260 kts | 135° |
| 2026-04-29 14:09 | 58.08459 | -5.08735 | 4961 ft | 233 kts | 129° |
| 2026-04-29 14:10 | 58.07473 | -5.06316 | 4773 ft | 229 kts | 128° |
| 2026-04-29 14:10 | 58.06550 | -5.03945 | 4760 ft | 222 kts | 127° |
| 2026-04-29 14:10 | 58.05665 | -5.01509 | 4817 ft | 226 kts | 125° |
| 2026-04-29 14:10 | 58.04777 | -4.99005 | 4851 ft | 233 kts | 126° |
| 2026-04-29 14:11 | 58.03861 | -4.96419 | 4837 ft | 241 kts | 125° |
| 2026-04-29 14:11 | 58.02926 | -4.93722 | 4827 ft | 250 kts | 124° |
| 2026-04-29 14:11 | 58.01988 | -4.90900 | 4853 ft | 258 kts | 123° |
| 2026-04-29 14:11 | 58.01025 | -4.87989 | 4866 ft | 265 kts | 124° |
| 2026-04-29 14:12 | 58.00005 | -4.85057 | 4938 ft | 269 kts | 126° |
| 2026-04-29 14:12 | 57.98934 | -4.82142 | 5011 ft | 272 kts | 127° |
| 2026-04-29 14:12 | 57.97815 | -4.79252 | 5052 ft | 274 kts | 128° |
| 2026-04-29 14:12 | 57.96651 | -4.76380 | 5153 ft | 277 kts | 129° |
| 2026-04-29 14:13 | 57.95446 | -4.73510 | 5268 ft | 280 kts | 130° |
| 2026-04-29 14:13 | 57.94217 | -4.70655 | 5346 ft | 283 kts | 131° |
| 2026-04-29 14:13 | 57.92944 | -4.67752 | 5260 ft | 293 kts | 131° |
| 2026-04-29 14:13 | 57.91585 | -4.64803 | 5208 ft | 303 kts | 134° |
| 2026-04-29 14:14 | 57.90100 | -4.61903 | 5161 ft | 312 kts | 136° |
| 2026-04-29 14:14 | 57.88544 | -4.59014 | 5120 ft | 314 kts | 136° |
| 2026-04-29 14:14 | 57.87030 | -4.56144 | 5109 ft | 305 kts | 136° |
| 2026-04-29 14:14 | 57.85574 | -4.53325 | 5068 ft | 297 kts | 135° |
| 2026-04-29 14:15 | 57.84170 | -4.50542 | 5024 ft | 291 kts | 134° |
| 2026-04-29 14:15 | 57.82805 | -4.47798 | 4959 ft | 284 kts | 135° |
| 2026-04-29 14:15 | 57.81490 | -4.45141 | 4899 ft | 279 kts | 134° |
| 2026-04-29 14:15 | 57.80221 | -4.42368 | 4841 ft | 274 kts | 130° |
| 2026-04-29 14:16 | 57.79098 | -4.39562 | 4777 ft | 271 kts | 127° |
| 2026-04-29 14:16 | 57.78056 | -4.36656 | 4703 ft | 266 kts | 123° |
| 2026-04-29 14:16 | 57.77089 | -4.33715 | 4522 ft | 266 kts | 122° |
| 2026-04-29 14:16 | 57.76180 | -4.30714 | 3970 ft | 263 kts | 120° |
| 2026-04-29 14:17 | 57.75344 | -4.27630 | 3424 ft | 260 kts | 117° |
| 2026-04-29 14:17 | 57.74617 | -4.24600 | 2891 ft | 257 kts | 114° |
| 2026-04-29 14:17 | 57.73957 | -4.21548 | 2573 ft | 244 kts | 114° |
| 2026-04-29 14:17 | 57.73376 | -4.18682 | 2528 ft | 221 kts | 114° |
| 2026-04-29 14:18 | 57.72855 | -4.16115 | 2377 ft | 203 kts | 111° |
| 2026-04-29 14:18 | 57.72389 | -4.13711 | 2205 ft | 191 kts | 111° |
| 2026-04-29 14:18 | 57.71882 | -4.11515 | 2122 ft | 177 kts | 123° |
| 2026-04-29 14:18 | 57.71286 | -4.09621 | 2237 ft | 160 kts | 120° |
| 2026-04-29 14:19 | 57.70620 | -4.08105 | 2185 ft | 147 kts | 147° |
| 2026-04-29 14:19 | 57.69907 | -4.06609 | 2210 ft | 164 kts | 124° |
| 2026-04-29 14:19 | 57.69343 | -4.04817 | 2250 ft | 159 kts | 121° |
| 2026-04-29 14:19 | 57.68827 | -4.03003 | 2186 ft | 157 kts | 119° |
| 2026-04-29 14:20 | 57.68329 | -4.01202 | 2131 ft | 155 kts | 118° |
| 2026-04-29 14:20 | 57.67848 | -3.99401 | 1996 ft | 156 kts | 117° |
| 2026-04-29 14:20 | 57.67401 | -3.97512 | 1807 ft | 161 kts | 112° |
| 2026-04-29 14:20 | 57.66946 | -3.95630 | 1782 ft | 161 kts | 130° |
| 2026-04-29 14:21 | 57.66105 | -3.94307 | 1991 ft | 155 kts | 156° |
| 2026-04-29 14:21 | 57.65070 | -3.93841 | 2095 ft | 154 kts | 172° |
| 2026-04-29 14:21 | 57.64027 | -3.93417 | 2177 ft | 155 kts | 160° |
| 2026-04-29 14:21 | 57.63014 | -3.92622 | 2252 ft | 159 kts | 168° |
| 2026-04-29 14:22 | 57.61956 | -3.92621 | 2449 ft | 151 kts | 196° |
| 2026-04-29 14:22 | 57.60918 | -3.93131 | 2410 ft | 158 kts | 191° |
| 2026-04-29 14:22 | 57.59932 | -3.93646 | 2618 ft | 133 kts | 202° |
| 2026-04-29 14:22 | 57.59161 | -3.94585 | 2434 ft | 137 kts | 222° |
| 2026-04-29 14:23 | 57.58434 | -3.95857 | 1977 ft | 149 kts | 223° |
| 2026-04-29 14:23 | 57.57709 | -3.97261 | 1558 ft | 152 kts | 225° |
| 2026-04-29 14:23 | 57.56969 | -3.98808 | 967 ft | 166 kts | 230° |
| 2026-04-29 14:23 | 57.56231 | -4.00451 | 581 ft | 163 kts | 229° |
| 2026-04-29 14:24 | 57.55505 | -4.01998 | 291 ft | 153 kts | 232° |
| 2026-04-29 14:24 | 57.54840 | -4.03464 | 82 ft | 142 kts | 231° |
| 2026-04-29 14:24 | 57.54298 | -4.04673 | 37 ft | 75 kts | 229° |
| 2026-04-29 14:24 | 57.54185 | -4.04914 | 35 ft | 4 kts | 229° |
| 2026-04-29 14:25 | 57.54095 | -4.05082 | 33 ft | 31 kts | 221° |
| 2026-04-29 14:25 | 57.54002 | -4.05235 | 34 ft | 4 kts | 221° |
| 2026-04-29 14:25 | 57.53991 | -4.05253 | 34 ft | 4 kts | 221° |
| 2026-04-29 14:25 | 57.53970 | -4.05287 | 34 ft | 4 kts | 221° |
| 2026-04-29 14:26 | 57.53949 | -4.05353 | 35 ft | 13 kts | 246° |
| 2026-04-29 14:26 | 57.53865 | -4.05573 | 35 ft | 24 kts | 230° |
| 2026-04-29 14:26 | 57.53756 | -4.05817 | 33 ft | 26 kts | 231° |
| 2026-04-29 14:26 | 57.53753 | -4.06104 | 32 ft | 23 kts | 303° |
| 2026-04-29 14:27 | 57.53889 | -4.06184 | 34 ft | 19 kts | 1° |
| 2026-04-29 14:27 | 57.53930 | -4.06249 | 34 ft | 0 kts | 277° |